createdAt,value
2018-09-20T00:00:59.486Z,101232.38
2018-09-20T00:03:26.569Z,101232.23
2018-09-20T00:05:53.660Z,101230.76
2018-09-20T00:08:22.430Z,101224.26
2018-09-20T00:10:50.020Z,101226.42
2018-09-20T00:13:18.135Z,101224.61
2018-09-20T00:15:45.182Z,101227.91
2018-09-20T00:18:12.342Z,101222.44
2018-09-20T00:20:40.407Z,101222.78
2018-09-20T00:23:08.440Z,101221.75
2018-09-20T00:25:35.544Z,101223.77
2018-09-20T00:28:04.243Z,101225.24
2018-09-20T00:30:32.157Z,101219.93
2018-09-20T00:33:00.291Z,101228.25
2018-09-20T00:35:28.235Z,101222.20
2018-09-20T00:37:56.104Z,101216.55
2018-09-20T00:40:55.985Z,101216.63
2018-09-20T00:43:23.699Z,101222.29
2018-09-20T00:45:51.196Z,101222.09
2018-09-20T00:48:17.853Z,101216.44
2018-09-20T00:50:44.485Z,101222.09
2018-09-20T00:53:11.116Z,101221.25
2018-09-20T00:55:37.757Z,101227.18
2018-09-20T00:58:04.570Z,101222.84
2018-09-20T01:00:31.247Z,101225.36
2018-09-20T01:02:58.897Z,101222.36
2018-09-20T01:05:25.625Z,101226.83
2018-09-20T01:07:53.224Z,101227.06
2018-09-20T01:10:22.279Z,101229.23
2018-09-20T01:12:51.073Z,101223.19
2018-09-20T01:15:18.612Z,101225.50
2018-09-20T01:17:46.156Z,101224.81
2018-09-20T01:20:13.757Z,101226.20
2018-09-20T01:22:41.361Z,101231.17
2018-09-20T01:25:08.009Z,101227.67
2018-09-20T01:27:35.681Z,101228.42
2018-09-20T01:30:03.345Z,101230.73
2018-09-20T01:32:30.049Z,101233.05
2018-09-20T01:34:56.689Z,101234.12
2018-09-20T01:37:23.398Z,101234.12
2018-09-20T01:39:52.255Z,101241.37
2018-09-20T01:42:20.614Z,101239.70
2018-09-20T01:44:48.269Z,101246.19
2018-09-20T01:47:14.964Z,101244.52
2018-09-20T01:49:42.600Z,101253.82
2018-09-20T01:52:09.298Z,101251.16
2018-09-20T01:54:36.900Z,101260.47
2018-09-20T01:57:04.594Z,101263.96
2018-09-20T01:59:32.034Z,101270.26
2018-09-20T02:01:59.598Z,101274.39
2018-09-20T02:04:26.301Z,101272.92
2018-09-20T02:06:52.984Z,101278.72
2018-09-20T02:09:20.482Z,101276.41
2018-09-20T02:11:47.162Z,101283.05
2018-09-20T02:14:14.659Z,101282.71
2018-09-20T02:16:42.217Z,101280.05
2018-09-20T02:19:08.901Z,101274.50
2018-09-20T02:21:36.627Z,101284.16
2018-09-20T02:24:04.264Z,101286.20
2018-09-20T02:26:31.922Z,101284.87
2018-09-20T02:28:58.786Z,101284.53
2018-09-20T02:31:26.489Z,101289.36
2018-09-20T02:33:54.032Z,101287.88
2018-09-20T02:36:21.010Z,101282.71
2018-09-20T02:38:48.608Z,101287.28
2018-09-20T02:41:16.188Z,101283.89
2018-09-20T02:43:43.801Z,101289.95
2018-09-20T02:46:10.482Z,101286.46
2018-09-20T02:48:38.093Z,101289.01
2018-09-20T02:51:05.716Z,101287.68
2018-09-20T02:53:34.485Z,101289.01
2018-09-20T02:56:02.168Z,101293.83
2018-09-20T02:58:30.353Z,101293.45
2018-09-20T03:00:57.858Z,101288.61
2018-09-20T03:03:25.478Z,101294.27
2018-09-20T03:05:53.201Z,101293.34
2018-09-20T03:08:21.304Z,101296.20
2018-09-20T03:10:48.814Z,101296.34
2018-09-20T03:13:16.293Z,101300.48
2018-09-20T03:15:43.992Z,101293.74
2018-09-20T03:18:10.633Z,101293.74
2018-09-20T03:20:38.202Z,101290.34
2018-09-20T03:23:05.812Z,101292.70
2018-09-20T03:25:34.367Z,101288.14
2018-09-20T03:28:01.889Z,101295.27
2018-09-20T03:30:28.653Z,101299.75
2018-09-20T03:32:55.314Z,101302.06
2018-09-20T03:35:22.001Z,101303.39
2018-09-20T03:37:48.642Z,101301.23
2018-09-20T03:40:15.286Z,101300.04
2018-09-20T03:42:41.935Z,101296.25
2018-09-20T03:45:08.630Z,101302.55
2018-09-20T03:47:35.281Z,101306.05
2018-09-20T03:50:01.927Z,101305.21
2018-09-20T03:52:28.564Z,101299.05
2018-09-20T03:54:55.237Z,101296.49
2018-09-20T03:57:21.877Z,101301.61
2018-09-20T03:59:48.594Z,101304.30
2018-09-20T04:02:15.251Z,101303.64
2018-09-20T04:04:41.929Z,101308.69
2018-09-20T04:07:09.489Z,101304.70
2018-09-20T04:09:36.175Z,101301.41
2018-09-20T04:12:04.277Z,101302.97
2018-09-20T04:14:31.788Z,101306.12
2018-09-20T04:16:59.445Z,101305.74
2018-09-20T04:19:27.030Z,101303.95
2018-09-20T04:21:53.697Z,101308.72
2018-09-20T04:24:21.304Z,101310.54
2018-09-20T04:26:47.989Z,101304.38
2018-09-20T04:29:14.625Z,101310.66
2018-09-20T04:31:41.271Z,101309.81
2018-09-20T04:34:07.946Z,101315.86
2018-09-20T04:36:34.629Z,101312.70
2018-09-20T04:39:03.187Z,101317.80
2018-09-20T04:41:30.937Z,101317.45
2018-09-20T04:43:57.859Z,101323.66
2018-09-20T04:46:24.693Z,101324.36
2018-09-20T04:48:52.420Z,101324.50
2018-09-20T04:51:19.081Z,101323.41
2018-09-20T04:53:46.585Z,101326.67
2018-09-20T04:56:13.336Z,101327.02
2018-09-20T04:58:40.068Z,101331.73
2018-09-20T05:01:06.838Z,101330.66
2018-09-20T05:03:34.949Z,101337.95
2018-09-20T05:06:03.820Z,101341.09
2018-09-20T05:08:30.480Z,101346.91
2018-09-20T05:10:57.969Z,101344.59
2018-09-20T05:13:24.872Z,101343.34
2018-09-20T05:15:51.525Z,101354.59
2018-09-20T05:18:19.011Z,101354.24
2018-09-20T05:20:46.585Z,101351.82
2018-09-20T05:23:14.046Z,101360.26
2018-09-20T05:25:41.533Z,101360.66
2018-09-20T05:28:09.636Z,101360.55
2018-09-20T05:30:37.268Z,101359.70
2018-09-20T05:33:05.843Z,101357.05
2018-09-20T05:35:35.103Z,101360.95
2018-09-20T05:38:03.353Z,101366.84
2018-09-20T05:40:30.870Z,101363.70
2018-09-20T05:42:58.522Z,101370.84
2018-09-20T05:45:26.237Z,101377.02
2018-09-20T05:47:53.874Z,101379.41
2018-09-20T05:50:21.465Z,101383.89
2018-09-20T05:52:49.037Z,101389.56
2018-09-20T05:55:16.624Z,101382.22
2018-09-20T05:57:44.168Z,101387.39
2018-09-20T06:00:10.845Z,101384.23
2018-09-20T06:02:38.343Z,101385.08
2018-09-20T06:05:06.101Z,101382.91
2018-09-20T06:07:34.315Z,101389.70
2018-09-20T06:10:04.166Z,101393.45
2018-09-20T06:12:32.766Z,101389.13
2018-09-20T06:15:00.420Z,101394.67
2018-09-20T06:17:28.057Z,101396.50
2018-09-20T06:19:55.661Z,101402.91
2018-09-20T06:22:23.337Z,101398.66
2018-09-20T06:24:51.552Z,101401.67
2018-09-20T06:27:19.146Z,101408.31
2018-09-20T06:29:46.787Z,101410.73
2018-09-20T06:32:13.440Z,101410.63
2018-09-20T06:34:40.189Z,101413.78
2018-09-20T06:37:07.276Z,101406.64
2018-09-20T06:39:34.930Z,101410.48
2018-09-20T06:42:03.572Z,101417.27
2018-09-20T06:44:31.205Z,101414.73
2018-09-20T06:46:58.937Z,101416.78
2018-09-20T06:49:25.602Z,101416.89
2018-09-20T06:51:53.398Z,101411.58
2018-09-20T06:54:21.485Z,101413.40
2018-09-20T06:56:48.143Z,101413.05
2018-09-20T06:59:14.860Z,101410.98
2018-09-20T07:01:41.542Z,101408.92
2018-09-20T07:04:08.197Z,101412.45
2018-09-20T07:06:35.173Z,101412.91
2018-09-20T07:09:02.986Z,101413.78
2018-09-20T07:11:29.645Z,101414.03
2018-09-20T07:13:57.969Z,101413.05
2018-09-20T07:16:25.070Z,101411.58
2018-09-20T07:18:51.941Z,101417.27
2018-09-20T07:21:18.638Z,101419.44
2018-09-20T07:23:45.448Z,101418.61
2018-09-20T07:26:12.315Z,101422.59
2018-09-20T07:28:38.993Z,101417.88
2018-09-20T07:31:05.789Z,101412.45
2018-09-20T07:33:33.683Z,101419.44
2018-09-20T07:36:01.657Z,101417.04
2018-09-20T07:38:29.297Z,101415.11
2018-09-20T07:40:56.790Z,101415.22
2018-09-20T07:43:24.601Z,101417.88
2018-09-20T07:45:52.593Z,101422.94
2018-09-20T07:48:20.824Z,101418.81
2018-09-20T07:50:48.385Z,101425.45
2018-09-20T07:53:15.301Z,101422.45
2018-09-20T07:55:43.021Z,101417.63
2018-09-20T07:58:10.593Z,101419.79
2018-09-20T08:00:38.118Z,101418.11
2018-09-20T08:03:05.652Z,101415.45
2018-09-20T08:05:33.681Z,101417.13
2018-09-20T08:08:00.385Z,101416.44
2018-09-20T08:10:27.037Z,101417.13
2018-09-20T08:12:54.733Z,101417.63
2018-09-20T08:15:22.313Z,101421.13
2018-09-20T08:17:49.901Z,101420.14
2018-09-20T08:20:17.364Z,101420.77
2018-09-20T08:22:45.013Z,101418.31
2018-09-20T08:25:12.625Z,101416.30
2018-09-20T08:27:39.309Z,101412.80
2018-09-20T08:30:06.053Z,101415.31
2018-09-20T08:32:33.500Z,101415.11
2018-09-20T08:35:00.229Z,101414.62
2018-09-20T08:37:27.939Z,101414.62
2018-09-20T08:39:55.518Z,101412.30
2018-09-20T08:42:23.215Z,101413.49
2018-09-20T08:44:51.805Z,101404.33
2018-09-20T08:47:20.530Z,101407.57
2018-09-20T08:49:48.069Z,101408.70
2018-09-20T08:52:15.537Z,101410.91
2018-09-20T08:54:43.188Z,101407.28
2018-09-20T08:57:10.734Z,101413.27
2018-09-20T08:59:38.101Z,101419.37
2018-09-20T09:02:05.711Z,101408.47
2018-09-20T09:04:34.927Z,101406.91
2018-09-20T09:07:03.948Z,101411.88
2018-09-20T09:09:31.553Z,101403.89
2018-09-20T09:11:58.267Z,101404.73
2018-09-20T09:14:25.776Z,101402.56
2018-09-20T09:16:53.408Z,101396.75
2018-09-20T09:19:21.413Z,101396.26
2018-09-20T09:21:48.920Z,101393.59
2018-09-20T09:24:16.561Z,101395.08
2018-09-20T09:26:44.169Z,101389.41
2018-09-20T09:29:11.618Z,101390.09
2018-09-20T09:31:39.229Z,101391.69
2018-09-20T09:34:06.747Z,101389.26
2018-09-20T09:36:34.724Z,101385.42
2018-09-20T09:39:03.648Z,101387.20
2018-09-20T09:41:30.305Z,101386.02
2018-09-20T09:43:57.884Z,101380.84
2018-09-20T09:46:25.672Z,101379.52
2018-09-20T09:48:53.209Z,101374.20
2018-09-20T09:51:19.909Z,101373.36
2018-09-20T09:53:47.449Z,101368.64
2018-09-20T09:56:15.121Z,101358.98
2018-09-20T09:58:42.714Z,101363.33
2018-09-20T10:01:10.349Z,101357.52
2018-09-20T10:03:37.007Z,101357.02
2018-09-20T10:06:04.484Z,101350.17
2018-09-20T10:08:32.912Z,101352.69
2018-09-20T10:10:59.566Z,101342.30
2018-09-20T10:13:27.106Z,101338.69
2018-09-20T10:15:53.746Z,101331.66
2018-09-20T10:18:21.304Z,101335.88
2018-09-20T10:20:48.937Z,101330.91
2018-09-20T10:23:16.556Z,101326.23
2018-09-20T10:25:43.317Z,101326.72
2018-09-20T10:28:11.002Z,101313.77
2018-09-20T10:30:38.577Z,101309.05
2018-09-20T10:33:06.310Z,101306.54
2018-09-20T10:35:34.490Z,101306.05
2018-09-20T10:38:01.173Z,101301.22
2018-09-20T10:40:27.898Z,101295.75
2018-09-20T10:42:55.564Z,101287.77
2018-09-20T10:45:23.174Z,101283.58
2018-09-20T10:47:51.721Z,101278.27
2018-09-20T10:50:19.383Z,101279.59
2018-09-20T10:52:46.993Z,101262.45
2018-09-20T10:55:13.647Z,101262.91
2018-09-20T10:57:43.268Z,101264.24
2018-09-20T11:00:11.829Z,101258.09
2018-09-20T11:02:39.460Z,101262.56
2018-09-20T11:05:06.941Z,101260.25
2018-09-20T11:07:34.461Z,101249.27
2018-09-20T11:10:02.978Z,101238.97
2018-09-20T11:12:29.631Z,101245.62
2018-09-20T11:14:56.282Z,101242.12
2018-09-20T11:17:22.929Z,101240.68
2018-09-20T11:19:50.611Z,101241.17
2018-09-20T11:22:17.284Z,101232.47
2018-09-20T11:24:43.929Z,101231.14
2018-09-20T11:27:10.593Z,101226.66
2018-09-20T11:29:38.184Z,101218.19
2018-09-20T11:32:04.831Z,101224.84
2018-09-20T11:34:31.472Z,101218.80
2018-09-20T11:36:58.107Z,101212.86
2018-09-20T11:39:24.775Z,101204.39
2018-09-20T11:41:51.937Z,101201.73
2018-09-20T11:44:18.593Z,101208.04
2018-09-20T11:46:45.378Z,101203.33
2018-09-20T11:49:11.993Z,101194.02
2018-09-20T11:51:38.645Z,101194.62
2018-09-20T11:54:06.193Z,101203.55
2018-09-20T11:56:33.955Z,101189.08
2018-09-20T11:59:01.558Z,101188.36
2018-09-20T12:01:28.401Z,101184.00
2018-09-20T12:03:55.021Z,101181.22
2018-09-20T12:06:22.721Z,101175.52
2018-09-20T12:08:51.497Z,101176.39
2018-09-20T12:11:19.156Z,101172.41
2018-09-20T12:13:46.814Z,101177.23
2018-09-20T12:16:14.521Z,101168.41
2018-09-20T12:18:42.106Z,101170.70
2018-09-20T12:21:08.875Z,101159.56
2018-09-20T12:23:36.486Z,101154.39
2018-09-20T12:26:05.558Z,101153.91
2018-09-20T12:28:34.081Z,101145.92
2018-09-20T12:31:00.729Z,101149.08
2018-09-20T12:33:28.397Z,101140.48
2018-09-20T12:35:56.108Z,101126.32
2018-09-20T12:38:22.860Z,101132.51
2018-09-20T12:40:49.510Z,101133.34
2018-09-20T12:43:17.064Z,101133.84
2018-09-20T12:45:44.501Z,101132.13
2018-09-20T12:48:12.241Z,101126.70
2018-09-20T12:50:39.869Z,101118.00
2018-09-20T12:53:07.325Z,101111.23
2018-09-20T12:55:34.016Z,101104.70
2018-09-20T12:58:01.544Z,101103.71
2018-09-20T13:00:28.693Z,101096.11
2018-09-20T13:02:56.449Z,101098.27
2018-09-20T13:05:23.924Z,101090.41
2018-09-20T13:07:51.453Z,101083.42
2018-09-20T13:10:19.152Z,101083.92
2018-09-20T13:12:45.834Z,101079.09
2018-09-20T13:15:13.397Z,101088.63
2018-09-20T13:17:40.837Z,101079.78
2018-09-20T13:20:08.615Z,101077.49
2018-09-20T13:22:36.072Z,101079.66
2018-09-20T13:25:03.689Z,101074.12
2018-09-20T13:27:31.337Z,101079.93
2018-09-20T13:29:58.109Z,101080.42
2018-09-20T13:32:25.722Z,101078.82
2018-09-20T13:34:53.289Z,101075.94
2018-09-20T13:37:21.976Z,101077.98
2018-09-20T13:39:49.513Z,101068.95
2018-09-20T13:42:17.116Z,101066.78
2018-09-20T13:44:44.788Z,101071.95
2018-09-20T13:47:11.515Z,101060.14
2018-09-20T13:49:38.301Z,101068.30
2018-09-20T13:52:06.285Z,101063.97
2018-09-20T13:54:33.996Z,101058.31
2018-09-20T13:57:00.714Z,101054.17
2018-09-20T13:59:27.362Z,101057.32
2018-09-20T14:01:54.006Z,101052.99
2018-09-20T14:04:21.458Z,101049.00
2018-09-20T14:06:49.333Z,101049.69
2018-09-20T14:09:17.028Z,101051.66
2018-09-20T14:11:44.685Z,101047.52
2018-09-20T14:14:12.381Z,101041.52
2018-09-20T14:16:39.860Z,101040.31
2018-09-20T14:19:07.465Z,101036.69
2018-09-20T14:21:34.389Z,101032.70
2018-09-20T14:24:02.952Z,101035.20
2018-09-20T14:26:30.556Z,101033.39
2018-09-20T14:28:58.245Z,101030.05
2018-09-20T14:31:25.876Z,101025.22
2018-09-20T14:33:53.330Z,101025.56
2018-09-20T14:36:21.879Z,101019.25
2018-09-20T14:38:48.549Z,101015.76
2018-09-20T14:41:16.209Z,101018.27
2018-09-20T14:43:43.977Z,101021.08
2018-09-20T14:46:10.637Z,101016.25
2018-09-20T14:48:38.226Z,101013.72
2018-09-20T14:51:05.952Z,101014.92
2018-09-20T14:53:34.180Z,101007.63
2018-09-20T14:56:03.802Z,101009.11
2018-09-20T14:58:34.016Z,101008.27
2018-09-20T15:01:01.186Z,101014.70
2018-09-20T15:03:28.925Z,101011.21
2018-09-20T15:05:56.553Z,101002.24
2018-09-20T15:08:23.991Z,101009.11
2018-09-20T15:10:51.605Z,101005.28
2018-09-20T15:13:18.272Z,101001.56
2018-09-20T15:15:45.941Z,101002.24
2018-09-20T15:18:13.572Z,101001.34
2018-09-20T15:20:41.165Z,101003.17
2018-09-20T15:23:08.800Z,101004.38
2018-09-20T15:25:36.379Z,100999.40
2018-09-20T15:28:03.965Z,100995.69
2018-09-20T15:30:30.646Z,100998.69
2018-09-20T15:32:58.346Z,101001.84
2018-09-20T15:35:25.930Z,100993.52
2018-09-20T15:37:53.584Z,100994.85
2018-09-20T15:40:20.954Z,100991.36
2018-09-20T15:42:49.436Z,100990.52
2018-09-20T15:45:16.950Z,100992.19
2018-09-20T15:47:43.640Z,100990.37
2018-09-20T15:50:11.155Z,100983.72
2018-09-20T15:52:37.849Z,100980.01
2018-09-20T15:55:05.337Z,100977.23
2018-09-20T15:57:32.667Z,100976.39
2018-09-20T16:00:00.405Z,100979.05
2018-09-20T16:02:28.112Z,100976.73
2018-09-20T16:04:54.877Z,100975.40
2018-09-20T16:07:22.638Z,100970.36
2018-09-20T16:09:50.975Z,100965.38
2018-09-20T16:12:18.410Z,100967.20
2018-09-20T16:14:45.945Z,100963.09
2018-09-20T16:17:13.529Z,100960.93
2018-09-20T16:19:41.134Z,100956.78
2018-09-20T16:22:07.866Z,100961.39
2018-09-20T16:24:34.541Z,100963.09
2018-09-20T16:27:03.080Z,100959.94
2018-09-20T16:29:43.371Z,100959.94
2018-09-20T16:34:24.589Z,100957.84
2018-09-20T16:36:59.233Z,100953.34
2018-09-20T16:39:27.205Z,100950.98
2018-09-20T16:41:56.880Z,100956.26
2018-09-20T16:44:24.395Z,100959.66
2018-09-20T16:46:52.146Z,100950.58
2018-09-20T16:49:18.864Z,100951.13
2018-09-20T16:51:46.427Z,100949.98
2018-09-20T16:54:14.025Z,100945.81
2018-09-20T16:56:40.799Z,100947.14
2018-09-20T16:59:10.275Z,100946.65
2018-09-20T17:01:38.314Z,100950.98
2018-09-20T17:04:05.989Z,100947.48
2018-09-20T17:06:33.798Z,100947.14
2018-09-20T17:09:01.316Z,100944.82
2018-09-20T17:11:29.031Z,100951.47
2018-09-20T17:13:56.614Z,100948.31
2018-09-20T17:16:23.322Z,100950.14
2018-09-20T17:18:51.101Z,100953.63
2018-09-20T17:21:17.856Z,100962.11
2018-09-20T17:23:45.354Z,100954.12
2018-09-20T17:26:12.014Z,100954.12
2018-09-20T17:28:39.456Z,100960.28
2018-09-20T17:31:07.236Z,100958.12
2018-09-20T17:33:33.929Z,100955.12
2018-09-20T17:36:03.548Z,100953.30
2018-09-20T17:38:30.689Z,100952.64
2018-09-20T17:41:06.104Z,100955.37
2018-09-20T17:43:43.992Z,100947.95
2018-09-20T17:46:11.679Z,100946.67
2018-09-20T17:48:39.214Z,100948.21
2018-09-20T17:51:06.841Z,100949.00
2018-09-20T17:53:34.572Z,100954.38
2018-09-20T17:56:05.638Z,100948.06
2018-09-20T17:58:33.606Z,100945.91
2018-09-20T18:01:02.119Z,100946.73
2018-09-20T18:03:30.949Z,100947.08
2018-09-20T18:06:01.403Z,100950.08
2018-09-20T18:08:29.884Z,100951.56
2018-09-20T18:10:56.653Z,100950.23
2018-09-20T18:13:23.322Z,100947.57
2018-09-20T18:15:57.059Z,100948.69
2018-09-20T18:18:23.859Z,100945.35
2018-09-20T18:20:52.654Z,100946.19
2018-09-20T18:23:20.419Z,100948.69
2018-09-20T18:25:47.168Z,100945.35
2018-09-20T18:28:13.820Z,100941.36
2018-09-20T18:30:40.613Z,100944.30
2018-09-20T18:33:08.248Z,100936.69
2018-09-20T18:35:34.970Z,100944.30
2018-09-20T18:38:03.636Z,100939.81
2018-09-20T18:40:30.363Z,100939.14
2018-09-20T18:42:57.809Z,100937.81
2018-09-20T18:45:25.672Z,100939.30
2018-09-20T18:47:53.291Z,100937.97
2018-09-20T18:50:22.249Z,100936.77
2018-09-20T18:52:50.932Z,100938.09
2018-09-20T18:55:18.528Z,100936.42
2018-09-20T18:57:45.159Z,100943.08
2018-09-20T19:00:12.745Z,100931.94
2018-09-20T19:02:39.418Z,100935.92
2018-09-20T19:05:06.066Z,100935.09
2018-09-20T19:07:33.765Z,100930.61
2018-09-20T19:10:00.469Z,100936.92
2018-09-20T19:12:27.119Z,100932.93
2018-09-20T19:14:53.909Z,100939.08
2018-09-20T19:17:21.651Z,100937.91
2018-09-20T19:19:48.316Z,100939.37
2018-09-20T19:22:16.125Z,100934.91
2018-09-20T19:24:42.825Z,100924.40
2018-09-20T19:27:09.481Z,100925.60
2018-09-20T19:29:36.130Z,100920.56
2018-09-20T19:32:03.254Z,100923.22
2018-09-20T19:34:29.924Z,100921.40
2018-09-20T19:36:56.581Z,100925.89
2018-09-20T19:39:23.229Z,100911.87
2018-09-20T19:41:51.031Z,100916.23
2018-09-20T19:44:17.759Z,100911.05
2018-09-20T19:46:44.416Z,100909.22
2018-09-20T19:49:11.049Z,100910.55
2018-09-20T19:51:37.788Z,100914.20
2018-09-20T19:54:04.444Z,100915.86
2018-09-20T19:56:32.773Z,100905.59
2018-09-20T19:59:00.331Z,100904.89
2018-09-20T20:01:27.026Z,100914.20
2018-09-20T20:03:54.595Z,100910.70
2018-09-20T20:06:22.224Z,100902.88
2018-09-20T20:08:48.930Z,100904.70
2018-09-20T20:11:15.605Z,100901.05
2018-09-20T20:13:42.356Z,100900.56
2018-09-20T20:16:09.006Z,100901.73
2018-09-20T20:18:35.741Z,100901.05
2018-09-20T20:21:03.440Z,100897.90
2018-09-20T20:23:30.541Z,100898.89
2018-09-20T20:25:57.601Z,100900.22
2018-09-20T20:28:24.673Z,100901.05
2018-09-20T20:30:51.823Z,100902.88
2018-09-20T20:33:18.949Z,100902.39
2018-09-20T20:35:45.937Z,100903.84
2018-09-20T20:38:12.957Z,100902.05
2018-09-20T20:40:40.938Z,100901.18
2018-09-20T20:43:07.883Z,100903.84
2018-09-20T20:45:35.861Z,100901.55
2018-09-20T20:48:02.986Z,100896.36
2018-09-20T20:50:31.285Z,100897.13
2018-09-20T20:52:59.267Z,100904.61
2018-09-20T20:55:27.174Z,100891.20
2018-09-20T20:57:55.034Z,100886.34
2018-09-20T21:00:22.085Z,100886.70
2018-09-20T21:02:51.071Z,100884.05
2018-09-20T21:05:19.033Z,100884.30
2018-09-20T21:07:46.083Z,100877.19
2018-09-20T21:10:14.105Z,100882.02
2018-09-20T21:12:42.263Z,100877.19
2018-09-20T21:15:10.289Z,100871.50
2018-09-20T21:17:38.171Z,100874.53
2018-09-20T21:20:06.093Z,100872.20
2018-09-20T21:22:33.090Z,100875.36
2018-09-20T21:25:00.227Z,100874.74
2018-09-20T21:27:27.301Z,100879.56
2018-09-20T21:29:54.444Z,100865.44
2018-09-20T21:32:22.959Z,100871.92
2018-09-20T21:34:50.969Z,100867.39
2018-09-20T21:37:18.034Z,100855.91
2018-09-20T21:39:45.058Z,100849.88
2018-09-20T21:42:13.025Z,100849.39
2018-09-20T21:44:40.095Z,100845.41
2018-09-20T21:47:07.122Z,100851.92
2018-09-20T21:49:34.196Z,100848.40
2018-09-20T21:52:01.311Z,100852.88
2018-09-20T21:54:29.805Z,100852.75
2018-09-20T21:56:57.603Z,100850.72
2018-09-20T21:59:24.645Z,100841.23
2018-09-20T22:01:57.749Z,100836.87
2018-09-20T22:04:26.935Z,100838.02
2018-09-20T22:06:53.979Z,100837.03
2018-09-20T22:09:21.186Z,100839.06
2018-09-20T22:11:48.717Z,100833.37
2018-09-20T22:14:15.850Z,100834.42
2018-09-20T22:16:43.062Z,100838.70
2018-09-20T22:19:10.039Z,100830.05
2018-09-20T22:21:37.021Z,100834.38
2018-09-20T22:24:05.017Z,100827.72
2018-09-20T22:26:32.043Z,100824.23
2018-09-20T22:29:00.154Z,100814.88
2018-09-20T22:31:27.169Z,100818.52
2018-09-20T22:33:54.183Z,100813.20
2018-09-20T22:36:21.998Z,100805.06
2018-09-20T22:38:49.094Z,100801.91
2018-09-20T22:41:17.188Z,100809.61
2018-09-20T22:43:44.332Z,100798.76
2018-09-20T22:46:11.371Z,100801.29
2018-09-20T22:48:39.465Z,100794.98
2018-09-20T22:51:07.981Z,100796.31
2018-09-20T22:53:35.909Z,100793.31
2018-09-20T22:56:04.556Z,100797.30
2018-09-20T22:58:32.579Z,100789.33
2018-09-20T23:01:00.539Z,100788.12
2018-09-20T23:03:29.349Z,100786.33
2018-09-20T23:05:56.632Z,100789.44
2018-09-20T23:08:24.566Z,100787.11
2018-09-20T23:10:52.406Z,100792.43
2018-09-20T23:13:19.411Z,100795.09
2018-09-20T23:15:47.547Z,100792.98
2018-09-20T23:18:14.595Z,100790.78
2018-09-20T23:20:41.717Z,100794.31
2018-09-20T23:23:08.775Z,100790.00
2018-09-20T23:25:35.828Z,100792.61
2018-09-20T23:28:02.865Z,100785.63
2018-09-20T23:30:30.625Z,100787.11
2018-09-20T23:32:57.609Z,100781.63
2018-09-20T23:35:25.487Z,100774.98
2018-09-20T23:38:00.374Z,100773.66
2018-09-20T23:40:27.583Z,100774.27
2018-09-20T23:42:55.605Z,100773.43
2018-09-20T23:45:23.473Z,100773.27
2018-09-20T23:47:52.423Z,100762.84
2018-09-20T23:50:19.426Z,100766.28
2018-09-20T23:52:47.535Z,100767.06
2018-09-20T23:55:14.596Z,100759.75
2018-09-20T23:57:41.646Z,100761.41
